sensor_id;sensor_type;location;lat;lon;timestamp;P1;P4;P2;P0;N10;N4;N25;N1;N05;TS
62702;SPS30;66022;50.448;18.122;2023-03-11T00:02:59;8.88;;8.76;;;;;;;
62702;SPS30;66022;50.448;18.122;2023-03-11T00:07:13;7.82;;7.82;;;;;;;
62702;SPS30;66022;50.448;18.122;2023-03-11T00:11:27;7.82;;7.82;;;;;;;
62702;SPS30;66022;50.448;18.122;2023-03-11T00:15:41;7.82;;7.82;;;;;;;
62702;SPS30;66022;50.448;18.122;2023-03-11T00:19:55;6.29;;5.74;;;;;;;
62702;SPS30;66022;50.448;18.122;2023-03-11T00:24:09;6.29;;5.74;;;;;;;
62702;SPS30;66022;50.448;18.122;2023-03-11T00:28:23;2.20;;1.99;;;;;;;
62702;SPS30;66022;50.448;18.122;2023-03-11T00:32:37;2.20;;1.99;;;;;;;
62702;SPS30;66022;50.448;18.122;2023-03-11T00:36:51;2.20;;1.99;;;;;;;
62702;SPS30;66022;50.448;18.122;2023-03-11T00:41:05;1.50;;1.50;;;;;;;
62702;SPS30;66022;50.448;18.122;2023-03-11T00:45:19;1.50;;1.50;;;;;;;
62702;SPS30;66022;50.448;18.122;2023-03-11T00:49:33;1.90;;1.68;;;;;;;
62702;SPS30;66022;50.448;18.122;2023-03-11T00:53:47;1.90;;1.68;;;;;;;
62702;SPS30;66022;50.448;18.122;2023-03-11T00:58:02;2.76;;2.38;;;;;;;
62702;SPS30;66022;50.448;18.122;2023-03-11T01:02:15;2.76;;2.38;;;;;;;
62702;SPS30;66022;50.448;18.122;2023-03-11T01:06:29;2.76;;2.38;;;;;;;
62702;SPS30;66022;50.448;18.122;2023-03-11T01:10:43;1.89;;1.89;;;;;;;
62702;SPS30;66022;50.448;18.122;2023-03-11T01:14:57;1.89;;1.89;;;;;;;
62702;SPS30;66022;50.448;18.122;2023-03-11T01:19:11;2.39;;2.39;;;;;;;
62702;SPS30;66022;50.448;18.122;2023-03-11T01:23:25;2.39;;2.39;;;;;;;
62702;SPS30;66022;50.448;18.122;2023-03-11T01:27:39;3.36;;2.89;;;;;;;
62702;SPS30;66022;50.448;18.122;2023-03-11T01:31:53;3.36;;2.89;;;;;;;
62702;SPS30;66022;50.448;18.122;2023-03-11T01:36:07;3.36;;2.89;;;;;;;
62702;SPS30;66022;50.448;18.122;2023-03-11T01:44:35;3.15;;3.02;;;;;;;
62702;SPS30;66022;50.448;18.122;2023-03-11T01:48:50;3.37;;3.37;;;;;;;
62702;SPS30;66022;50.448;18.122;2023-03-11T01:53:03;3.37;;3.37;;;;;;;
62702;SPS30;66022;50.448;18.122;2023-03-11T01:57:17;2.94;;2.94;;;;;;;
62702;SPS30;66022;50.448;18.122;2023-03-11T02:01:31;2.94;;2.94;;;;;;;
62702;SPS30;66022;50.448;18.122;2023-03-11T02:05:45;2.94;;2.94;;;;;;;
62702;SPS30;66022;50.448;18.122;2023-03-11T02:09:59;3.18;;3.18;;;;;;;
62702;SPS30;66022;50.448;18.122;2023-03-11T02:14:13;3.18;;3.18;;;;;;;
62702;SPS30;66022;50.448;18.122;2023-03-11T02:18:27;2.67;;2.67;;;;;;;
62702;SPS30;66022;50.448;18.122;2023-03-11T02:22:41;2.67;;2.67;;;;;;;
62702;SPS30;66022;50.448;18.122;2023-03-11T02:26:59;2.67;;2.67;;;;;;;
62702;SPS30;66022;50.448;18.122;2023-03-11T02:31:09;2.64;;2.64;;;;;;;
62702;SPS30;66022;50.448;18.122;2023-03-11T02:35:23;2.64;;2.64;;;;;;;
62702;SPS30;66022;50.448;18.122;2023-03-11T02:39:38;2.72;;2.72;;;;;;;
62702;SPS30;66022;50.448;18.122;2023-03-11T02:43:51;2.72;;2.72;;;;;;;
62702;SPS30;66022;50.448;18.122;2023-03-11T02:48:05;3.13;;3.13;;;;;;;
62702;SPS30;66022;50.448;18.122;2023-03-11T02:52:19;3.13;;3.13;;;;;;;
62702;SPS30;66022;50.448;18.122;2023-03-11T02:56:33;3.13;;3.13;;;;;;;
62702;SPS30;66022;50.448;18.122;2023-03-11T03:00:47;3.93;;3.58;;;;;;;
62702;SPS30;66022;50.448;18.122;2023-03-11T03:05:01;3.93;;3.58;;;;;;;
62702;SPS30;66022;50.448;18.122;2023-03-11T03:09:15;2.49;;2.49;;;;;;;
62702;SPS30;66022;50.448;18.122;2023-03-11T03:13:29;2.49;;2.49;;;;;;;
62702;SPS30;66022;50.448;18.122;2023-03-11T03:17:43;2.30;;2.30;;;;;;;
62702;SPS30;66022;50.448;18.122;2023-03-11T03:21:57;2.30;;2.30;;;;;;;
62702;SPS30;66022;50.448;18.122;2023-03-11T03:26:12;2.30;;2.30;;;;;;;
62702;SPS30;66022;50.448;18.122;2023-03-11T03:30:25;1.78;;1.53;;;;;;;
62702;SPS30;66022;50.448;18.122;2023-03-11T03:34:39;1.78;;1.53;;;;;;;
62702;SPS30;66022;50.448;18.122;2023-03-11T03:38:53;2.06;;1.71;;;;;;;
62702;SPS30;66022;50.448;18.122;2023-03-11T03:43:07;2.06;;1.71;;;;;;;
62702;SPS30;66022;50.448;18.122;2023-03-11T03:47:21;1.58;;1.46;;;;;;;
62702;SPS30;66022;50.448;18.122;2023-03-11T03:51:35;1.58;;1.46;;;;;;;
62702;SPS30;66022;50.448;18.122;2023-03-11T03:55:49;1.58;;1.46;;;;;;;
62702;SPS30;66022;50.448;18.122;2023-03-11T04:00:03;1.68;;1.60;;;;;;;
62702;SPS30;66022;50.448;18.122;2023-03-11T04:04:17;1.68;;1.60;;;;;;;
62702;SPS30;66022;50.448;18.122;2023-03-11T04:08:31;1.13;;1.13;;;;;;;
62702;SPS30;66022;50.448;18.122;2023-03-11T04:12:45;1.13;;1.13;;;;;;;
62702;SPS30;66022;50.448;18.122;2023-03-11T04:16:59;1.13;;1.13;;;;;;;
62702;SPS30;66022;50.448;18.122;2023-03-11T04:21:13;0.31;;0.31;;;;;;;
62702;SPS30;66022;50.448;18.122;2023-03-11T04:25:27;0.31;;0.31;;;;;;;
62702;SPS30;66022;50.448;18.122;2023-03-11T04:29:41;0.32;;0.32;;;;;;;
62702;SPS30;66022;50.448;18.122;2023-03-11T04:33:55;0.32;;0.32;;;;;;;
62702;SPS30;66022;50.448;18.122;2023-03-11T04:38:09;1.71;;1.11;;;;;;;
62702;SPS30;66022;50.448;18.122;2023-03-11T04:42:23;1.71;;1.11;;;;;;;
62702;SPS30;66022;50.448;18.122;2023-03-11T04:46:37;1.71;;1.11;;;;;;;
62702;SPS30;66022;50.448;18.122;2023-03-11T04:50:51;1.43;;1.07;;;;;;;
62702;SPS30;66022;50.448;18.122;2023-03-11T04:55:05;1.43;;1.07;;;;;;;
62702;SPS30;66022;50.448;18.122;2023-03-11T04:59:19;1.50;;1.13;;;;;;;
62702;SPS30;66022;50.448;18.122;2023-03-11T05:03:33;1.50;;1.13;;;;;;;
62702;SPS30;66022;50.448;18.122;2023-03-11T05:07:47;0.82;;0.82;;;;;;;
62702;SPS30;66022;50.448;18.122;2023-03-11T05:12:01;0.82;;0.82;;;;;;;
62702;SPS30;66022;50.448;18.122;2023-03-11T05:16:15;0.82;;0.82;;;;;;;
62702;SPS30;66022;50.448;18.122;2023-03-11T05:20:29;1.02;;1.02;;;;;;;
62702;SPS30;66022;50.448;18.122;2023-03-11T05:24:43;1.02;;1.02;;;;;;;
62702;SPS30;66022;50.448;18.122;2023-03-11T05:28:57;1.27;;1.27;;;;;;;
62702;SPS30;66022;50.448;18.122;2023-03-11T05:33:11;1.27;;1.27;;;;;;;
62702;SPS30;66022;50.448;18.122;2023-03-11T05:37:25;1.35;;1.35;;;;;;;
62702;SPS30;66022;50.448;18.122;2023-03-11T05:41:39;1.35;;1.35;;;;;;;
62702;SPS30;66022;50.448;18.122;2023-03-11T05:45:53;1.35;;1.35;;;;;;;
62702;SPS30;66022;50.448;18.122;2023-03-11T05:50:07;0.95;;0.95;;;;;;;
62702;SPS30;66022;50.448;18.122;2023-03-11T05:54:21;0.95;;0.95;;;;;;;
62702;SPS30;66022;50.448;18.122;2023-03-11T05:58:35;1.74;;1.74;;;;;;;
62702;SPS30;66022;50.448;18.122;2023-03-11T06:02:49;1.74;;1.74;;;;;;;
62702;SPS30;66022;50.448;18.122;2023-03-11T06:07:03;1.74;;1.74;;;;;;;
62702;SPS30;66022;50.448;18.122;2023-03-11T06:11:17;1.37;;1.37;;;;;;;
62702;SPS30;66022;50.448;18.122;2023-03-11T06:15:36;1.37;;1.37;;;;;;;
62702;SPS30;66022;50.448;18.122;2023-03-11T06:23:59;1.79;;1.79;;;;;;;
62702;SPS30;66022;50.448;18.122;2023-03-11T06:28:13;1.60;;1.60;;;;;;;
62702;SPS30;66022;50.448;18.122;2023-03-11T06:32:27;1.60;;1.60;;;;;;;
62702;SPS30;66022;50.448;18.122;2023-03-11T06:36:41;1.60;;1.60;;;;;;;
62702;SPS30;66022;50.448;18.122;2023-03-11T06:45:09;1.51;;1.51;;;;;;;
62702;SPS30;66022;50.448;18.122;2023-03-11T06:49:23;1.82;;1.82;;;;;;;
62702;SPS30;66022;50.448;18.122;2023-03-11T06:53:37;1.82;;1.82;;;;;;;
62702;SPS30;66022;50.448;18.122;2023-03-11T06:57:51;2.28;;2.28;;;;;;;
62702;SPS30;66022;50.448;18.122;2023-03-11T07:02:05;2.28;;2.28;;;;;;;
62702;SPS30;66022;50.448;18.122;2023-03-11T07:06:20;2.28;;2.28;;;;;;;
62702;SPS30;66022;50.448;18.122;2023-03-11T07:10:33;2.36;;2.36;;;;;;;
62702;SPS30;66022;50.448;18.122;2023-03-11T07:14:47;2.36;;2.36;;;;;;;
62702;SPS30;66022;50.448;18.122;2023-03-11T07:19:01;2.90;;2.90;;;;;;;
62702;SPS30;66022;50.448;18.122;2023-03-11T07:23:15;2.90;;2.90;;;;;;;
62702;SPS30;66022;50.448;18.122;2023-03-11T07:27:31;3.85;;3.85;;;;;;;
62702;SPS30;66022;50.448;18.122;2023-03-11T07:31:43;3.85;;3.85;;;;;;;
62702;SPS30;66022;50.448;18.122;2023-03-11T07:35:57;3.85;;3.85;;;;;;;
62702;SPS30;66022;50.448;18.122;2023-03-11T07:40:11;3.66;;3.66;;;;;;;
62702;SPS30;66022;50.448;18.122;2023-03-11T07:44:25;3.66;;3.66;;;;;;;
62702;SPS30;66022;50.448;18.122;2023-03-11T07:48:39;3.77;;3.77;;;;;;;
62702;SPS30;66022;50.448;18.122;2023-03-11T07:52:53;3.77;;3.77;;;;;;;
62702;SPS30;66022;50.448;18.122;2023-03-11T07:57:07;3.77;;3.77;;;;;;;
62702;SPS30;66022;50.448;18.122;2023-03-11T08:01:22;4.93;;4.59;;;;;;;
62702;SPS30;66022;50.448;18.122;2023-03-11T08:05:35;4.93;;4.59;;;;;;;
62702;SPS30;66022;50.448;18.122;2023-03-11T08:09:49;4.89;;4.89;;;;;;;
62702;SPS30;66022;50.448;18.122;2023-03-11T08:14:03;4.89;;4.89;;;;;;;
62702;SPS30;66022;50.448;18.122;2023-03-11T08:18:17;3.81;;3.67;;;;;;;
62702;SPS30;66022;50.448;18.122;2023-03-11T08:22:33;3.81;;3.67;;;;;;;
62702;SPS30;66022;50.448;18.122;2023-03-11T08:26:45;3.81;;3.67;;;;;;;
62702;SPS30;66022;50.448;18.122;2023-03-11T08:31:01;5.10;;5.10;;;;;;;
62702;SPS30;66022;50.448;18.122;2023-03-11T08:35:13;5.10;;5.10;;;;;;;
62702;SPS30;66022;50.448;18.122;2023-03-11T08:39:28;4.63;;4.52;;;;;;;
62702;SPS30;66022;50.448;18.122;2023-03-11T08:43:42;4.63;;4.52;;;;;;;
62702;SPS30;66022;50.448;18.122;2023-03-11T08:47:56;5.11;;4.56;;;;;;;
62702;SPS30;66022;50.448;18.122;2023-03-11T08:52:10;5.11;;4.56;;;;;;;
62702;SPS30;66022;50.448;18.122;2023-03-11T08:56:24;5.11;;4.56;;;;;;;
62702;SPS30;66022;50.448;18.122;2023-03-11T09:00:38;32.15;;30.86;;;;;;;
62702;SPS30;66022;50.448;18.122;2023-03-11T09:04:52;32.15;;30.86;;;;;;;
62702;SPS30;66022;50.448;18.122;2023-03-11T09:09:06;455.96;;345.31;;;;;;;
62702;SPS30;66022;50.448;18.122;2023-03-11T09:13:20;455.96;;345.31;;;;;;;
62702;SPS30;66022;50.448;18.122;2023-03-11T09:17:34;1003.24;;794.54;;;;;;;
62702;SPS30;66022;50.448;18.122;2023-03-11T09:21:48;1003.24;;794.54;;;;;;;
62702;SPS30;66022;50.448;18.122;2023-03-11T09:26:02;1003.24;;794.54;;;;;;;
62702;SPS30;66022;50.448;18.122;2023-03-11T09:30:16;105.14;;93.19;;;;;;;
62702;SPS30;66022;50.448;18.122;2023-03-11T09:34:30;105.14;;93.19;;;;;;;
62702;SPS30;66022;50.448;18.122;2023-03-11T09:38:44;39.11;;38.74;;;;;;;
62702;SPS30;66022;50.448;18.122;2023-03-11T09:51:27;40.81;;40.81;;;;;;;
62702;SPS30;66022;50.448;18.122;2023-03-11T09:55:44;40.81;;40.81;;;;;;;
62702;SPS30;66022;50.448;18.122;2023-03-11T09:59:54;7.88;;7.88;;;;;;;
62702;SPS30;66022;50.448;18.122;2023-03-11T10:08:28;6.71;;6.71;;;;;;;
62702;SPS30;66022;50.448;18.122;2023-03-11T10:16:54;6.71;;6.71;;;;;;;
62702;SPS30;66022;50.448;18.122;2023-03-11T10:21:12;8.62;;8.62;;;;;;;
62702;SPS30;66022;50.448;18.122;2023-03-11T10:33:48;6.34;;6.34;;;;;;;
62702;SPS30;66022;50.448;18.122;2023-03-11T10:38:06;9.51;;8.43;;;;;;;
62702;SPS30;66022;50.448;18.122;2023-03-11T10:42:15;9.51;;8.43;;;;;;;
62702;SPS30;66022;50.448;18.122;2023-03-11T10:46:28;9.51;;8.43;;;;;;;
62702;SPS30;66022;50.448;18.122;2023-03-11T10:55:00;6.79;;6.79;;;;;;;
62702;SPS30;66022;50.448;18.122;2023-03-11T11:03:24;8.79;;8.45;;;;;;;
62702;SPS30;66022;50.448;18.122;2023-03-11T11:07:38;9.00;;9.00;;;;;;;
62702;SPS30;66022;50.448;18.122;2023-03-11T11:20:20;6.85;;6.61;;;;;;;
62702;SPS30;66022;50.448;18.122;2023-03-11T11:24:34;6.85;;6.61;;;;;;;
62702;SPS30;66022;50.448;18.122;2023-03-11T11:37:16;8.80;;8.13;;;;;;;
62702;SPS30;66022;50.448;18.122;2023-03-11T11:41:30;8.80;;8.13;;;;;;;
62702;SPS30;66022;50.448;18.122;2023-03-11T11:45:45;8.80;;8.13;;;;;;;
62702;SPS30;66022;50.448;18.122;2023-03-11T11:50:03;6.52;;6.40;;;;;;;
62702;SPS30;66022;50.448;18.122;2023-03-11T11:54:14;6.52;;6.40;;;;;;;
62702;SPS30;66022;50.448;18.122;2023-03-11T11:58:26;6.87;;6.56;;;;;;;
62702;SPS30;66022;50.448;18.122;2023-03-11T12:02:45;6.87;;6.56;;;;;;;
62702;SPS30;66022;50.448;18.122;2023-03-11T12:11:13;8.88;;8.88;;;;;;;
62702;SPS30;66022;50.448;18.122;2023-03-11T12:15:26;8.88;;8.88;;;;;;;
62702;SPS30;66022;50.448;18.122;2023-03-11T12:19:41;13.17;;12.24;;;;;;;
62702;SPS30;66022;50.448;18.122;2023-03-11T12:28:09;7.62;;7.62;;;;;;;
62702;SPS30;66022;50.448;18.122;2023-03-11T12:32:21;7.62;;7.62;;;;;;;
62702;SPS30;66022;50.448;18.122;2023-03-11T12:36:33;7.62;;7.62;;;;;;;
62702;SPS30;66022;50.448;18.122;2023-03-11T12:40:55;14.33;;13.96;;;;;;;
62702;SPS30;66022;50.448;18.122;2023-03-11T12:45:12;14.33;;13.96;;;;;;;
62702;SPS30;66022;50.448;18.122;2023-03-11T12:49:14;14.93;;13.38;;;;;;;
62702;SPS30;66022;50.448;18.122;2023-03-11T12:57:49;11.63;;10.70;;;;;;;
62702;SPS30;66022;50.448;18.122;2023-03-11T13:06:13;11.63;;10.70;;;;;;;
62702;SPS30;66022;50.448;18.122;2023-03-11T13:14:38;11.70;;11.28;;;;;;;
62702;SPS30;66022;50.448;18.122;2023-03-11T13:18:52;12.46;;10.57;;;;;;;
62702;SPS30;66022;50.448;18.122;2023-03-11T13:27:27;7.10;;7.10;;;;;;;
62702;SPS30;66022;50.448;18.122;2023-03-11T13:48:35;10.91;;9.59;;;;;;;
62702;SPS30;66022;50.448;18.122;2023-03-11T13:52:48;10.91;;9.59;;;;;;;
62702;SPS30;66022;50.448;18.122;2023-03-11T13:56:58;10.91;;9.59;;;;;;;
62702;SPS30;66022;50.448;18.122;2023-03-11T14:01:15;8.55;;8.48;;;;;;;
62702;SPS30;66022;50.448;18.122;2023-03-11T14:05:28;8.55;;8.48;;;;;;;
62702;SPS30;66022;50.448;18.122;2023-03-11T14:09:40;9.83;;9.83;;;;;;;
62702;SPS30;66022;50.448;18.122;2023-03-11T14:13:54;9.83;;9.83;;;;;;;
62702;SPS30;66022;50.448;18.122;2023-03-11T14:22:22;33.69;;27.58;;;;;;;
62702;SPS30;66022;50.448;18.122;2023-03-11T14:26:36;33.69;;27.58;;;;;;;
62702;SPS30;66022;50.448;18.122;2023-03-11T14:35:17;26.87;;24.98;;;;;;;
62702;SPS30;66022;50.448;18.122;2023-03-11T14:39:21;21.66;;20.74;;;;;;;
62702;SPS30;66022;50.448;18.122;2023-03-11T14:43:33;21.66;;20.74;;;;;;;
62702;SPS30;66022;50.448;18.122;2023-03-11T14:47:48;14.73;;13.78;;;;;;;
62702;SPS30;66022;50.448;18.122;2023-03-11T14:52:00;14.73;;13.78;;;;;;;
62702;SPS30;66022;50.448;18.122;2023-03-11T14:56:18;14.73;;13.78;;;;;;;
62702;SPS30;66022;50.448;18.122;2023-03-11T15:00:29;11.61;;10.80;;;;;;;
62702;SPS30;66022;50.448;18.122;2023-03-11T15:04:42;11.61;;10.80;;;;;;;
62702;SPS30;66022;50.448;18.122;2023-03-11T15:13:14;10.65;;10.29;;;;;;;
62702;SPS30;66022;50.448;18.122;2023-03-11T15:17:25;10.12;;10.02;;;;;;;
62702;SPS30;66022;50.448;18.122;2023-03-11T15:21:43;10.12;;10.02;;;;;;;
62702;SPS30;66022;50.448;18.122;2023-03-11T15:25:52;10.12;;10.02;;;;;;;
62702;SPS30;66022;50.448;18.122;2023-03-11T15:34:21;12.45;;12.45;;;;;;;
62702;SPS30;66022;50.448;18.122;2023-03-11T15:38:34;8.47;;8.47;;;;;;;
62702;SPS30;66022;50.448;18.122;2023-03-11T15:42:49;8.47;;8.47;;;;;;;
62702;SPS30;66022;50.448;18.122;2023-03-11T15:47:02;8.47;;8.47;;;;;;;
62702;SPS30;66022;50.448;18.122;2023-03-11T15:51:17;9.91;;9.26;;;;;;;
62702;SPS30;66022;50.448;18.122;2023-03-11T15:55:30;9.91;;9.26;;;;;;;
62702;SPS30;66022;50.448;18.122;2023-03-11T15:59:44;16.83;;15.39;;;;;;;
62702;SPS30;66022;50.448;18.122;2023-03-11T16:03:58;16.83;;15.39;;;;;;;
62702;SPS30;66022;50.448;18.122;2023-03-11T16:08:12;24.89;;19.85;;;;;;;
62702;SPS30;66022;50.448;18.122;2023-03-11T16:12:26;24.89;;19.85;;;;;;;
62702;SPS30;66022;50.448;18.122;2023-03-11T16:16:40;24.89;;19.85;;;;;;;
62702;SPS30;66022;50.448;18.122;2023-03-11T16:20:54;17.75;;14.83;;;;;;;
62702;SPS30;66022;50.448;18.122;2023-03-11T16:25:13;17.75;;14.83;;;;;;;
62702;SPS30;66022;50.448;18.122;2023-03-11T16:29:22;24.85;;20.50;;;;;;;
62702;SPS30;66022;50.448;18.122;2023-03-11T16:33:36;24.85;;20.50;;;;;;;
62702;SPS30;66022;50.448;18.122;2023-03-11T16:37:50;9.81;;9.64;;;;;;;
62702;SPS30;66022;50.448;18.122;2023-03-11T16:42:04;9.81;;9.64;;;;;;;
62702;SPS30;66022;50.448;18.122;2023-03-11T16:46:18;9.81;;9.64;;;;;;;
62702;SPS30;66022;50.448;18.122;2023-03-11T16:50:32;17.61;;15.28;;;;;;;
62702;SPS30;66022;50.448;18.122;2023-03-11T16:54:46;17.61;;15.28;;;;;;;
62702;SPS30;66022;50.448;18.122;2023-03-11T16:59:00;17.61;;15.58;;;;;;;
62702;SPS30;66022;50.448;18.122;2023-03-11T17:03:15;17.61;;15.58;;;;;;;
62702;SPS30;66022;50.448;18.122;2023-03-11T17:07:29;11.63;;10.97;;;;;;;
62702;SPS30;66022;50.448;18.122;2023-03-11T17:11:43;11.63;;10.97;;;;;;;
62702;SPS30;66022;50.448;18.122;2023-03-11T17:15:57;11.63;;10.97;;;;;;;
62702;SPS30;66022;50.448;18.122;2023-03-11T17:20:11;14.32;;12.98;;;;;;;
62702;SPS30;66022;50.448;18.122;2023-03-11T17:24:25;14.32;;12.98;;;;;;;
62702;SPS30;66022;50.448;18.122;2023-03-11T17:28:39;17.40;;16.17;;;;;;;
62702;SPS30;66022;50.448;18.122;2023-03-11T17:32:52;17.40;;16.17;;;;;;;
62702;SPS30;66022;50.448;18.122;2023-03-11T17:37:07;17.40;;16.17;;;;;;;
62702;SPS30;66022;50.448;18.122;2023-03-11T17:41:21;14.29;;13.26;;;;;;;
62702;SPS30;66022;50.448;18.122;2023-03-11T17:45:37;14.29;;13.26;;;;;;;
62702;SPS30;66022;50.448;18.122;2023-03-11T17:49:48;9.57;;9.27;;;;;;;
62702;SPS30;66022;50.448;18.122;2023-03-11T17:54:03;9.57;;9.27;;;;;;;
62702;SPS30;66022;50.448;18.122;2023-03-11T17:58:17;14.76;;13.24;;;;;;;
62702;SPS30;66022;50.448;18.122;2023-03-11T18:02:30;14.76;;13.24;;;;;;;
62702;SPS30;66022;50.448;18.122;2023-03-11T18:06:44;14.76;;13.24;;;;;;;
62702;SPS30;66022;50.448;18.122;2023-03-11T18:10:59;15.81;;14.65;;;;;;;
62702;SPS30;66022;50.448;18.122;2023-03-11T18:15:13;15.81;;14.65;;;;;;;
62702;SPS30;66022;50.448;18.122;2023-03-11T18:19:27;7.75;;7.50;;;;;;;
62702;SPS30;66022;50.448;18.122;2023-03-11T18:23:41;7.75;;7.50;;;;;;;
62702;SPS30;66022;50.448;18.122;2023-03-11T18:27:55;10.76;;9.66;;;;;;;
62702;SPS30;66022;50.448;18.122;2023-03-11T18:32:08;10.76;;9.66;;;;;;;
62702;SPS30;66022;50.448;18.122;2023-03-11T18:36:24;10.76;;9.66;;;;;;;
62702;SPS30;66022;50.448;18.122;2023-03-11T18:40:37;12.69;;11.60;;;;;;;
62702;SPS30;66022;50.448;18.122;2023-03-11T18:44:50;12.69;;11.60;;;;;;;
62702;SPS30;66022;50.448;18.122;2023-03-11T18:49:05;14.53;;12.64;;;;;;;
62702;SPS30;66022;50.448;18.122;2023-03-11T18:53:19;14.53;;12.64;;;;;;;
62702;SPS30;66022;50.448;18.122;2023-03-11T18:57:33;10.89;;10.46;;;;;;;
62702;SPS30;66022;50.448;18.122;2023-03-11T19:01:48;10.89;;10.46;;;;;;;
62702;SPS30;66022;50.448;18.122;2023-03-11T19:06:01;10.89;;10.46;;;;;;;
62702;SPS30;66022;50.448;18.122;2023-03-11T19:10:15;12.88;;12.60;;;;;;;
62702;SPS30;66022;50.448;18.122;2023-03-11T19:14:29;12.88;;12.60;;;;;;;
62702;SPS30;66022;50.448;18.122;2023-03-11T19:18:43;11.97;;11.91;;;;;;;
62702;SPS30;66022;50.448;18.122;2023-03-11T19:22:56;11.97;;11.91;;;;;;;
62702;SPS30;66022;50.448;18.122;2023-03-11T19:27:10;11.97;;11.91;;;;;;;
62702;SPS30;66022;50.448;18.122;2023-03-11T19:31:25;11.91;;11.90;;;;;;;
62702;SPS30;66022;50.448;18.122;2023-03-11T19:35:38;11.91;;11.90;;;;;;;
62702;SPS30;66022;50.448;18.122;2023-03-11T19:39:53;11.44;;10.80;;;;;;;
62702;SPS30;66022;50.448;18.122;2023-03-11T19:44:08;11.44;;10.80;;;;;;;
62702;SPS30;66022;50.448;18.122;2023-03-11T19:48:24;10.44;;9.87;;;;;;;
62702;SPS30;66022;50.448;18.122;2023-03-11T19:52:34;10.44;;9.87;;;;;;;
62702;SPS30;66022;50.448;18.122;2023-03-11T19:56:48;10.44;;9.87;;;;;;;
62702;SPS30;66022;50.448;18.122;2023-03-11T20:01:04;13.40;;11.67;;;;;;;
62702;SPS30;66022;50.448;18.122;2023-03-11T20:05:16;13.40;;11.67;;;;;;;
62702;SPS30;66022;50.448;18.122;2023-03-11T20:09:31;12.80;;11.15;;;;;;;
62702;SPS30;66022;50.448;18.122;2023-03-11T20:13:45;12.80;;11.15;;;;;;;
62702;SPS30;66022;50.448;18.122;2023-03-11T20:17:59;13.48;;12.45;;;;;;;
62702;SPS30;66022;50.448;18.122;2023-03-11T20:22:13;13.48;;12.45;;;;;;;
62702;SPS30;66022;50.448;18.122;2023-03-11T20:26:27;13.48;;12.45;;;;;;;
62702;SPS30;66022;50.448;18.122;2023-03-11T20:30:41;12.40;;11.92;;;;;;;
62702;SPS30;66022;50.448;18.122;2023-03-11T20:34:55;12.40;;11.92;;;;;;;
62702;SPS30;66022;50.448;18.122;2023-03-11T20:39:09;12.09;;11.76;;;;;;;
62702;SPS30;66022;50.448;18.122;2023-03-11T20:43:23;12.09;;11.76;;;;;;;
62702;SPS30;66022;50.448;18.122;2023-03-11T20:47:36;60.59;;60.01;;;;;;;
62702;SPS30;66022;50.448;18.122;2023-03-11T20:51:51;60.59;;60.01;;;;;;;
62702;SPS30;66022;50.448;18.122;2023-03-11T20:56:06;60.59;;60.01;;;;;;;
62702;SPS30;66022;50.448;18.122;2023-03-11T21:00:19;44.74;;42.42;;;;;;;
62702;SPS30;66022;50.448;18.122;2023-03-11T21:04:33;44.74;;42.42;;;;;;;
62702;SPS30;66022;50.448;18.122;2023-03-11T21:08:47;16.88;;16.87;;;;;;;
62702;SPS30;66022;50.448;18.122;2023-03-11T21:13:01;16.88;;16.87;;;;;;;
62702;SPS30;66022;50.448;18.122;2023-03-11T21:17:15;15.20;;14.44;;;;;;;
62702;SPS30;66022;50.448;18.122;2023-03-11T21:21:29;15.20;;14.44;;;;;;;
62702;SPS30;66022;50.448;18.122;2023-03-11T21:25:42;15.20;;14.44;;;;;;;
62702;SPS30;66022;50.448;18.122;2023-03-11T21:29:57;12.60;;12.44;;;;;;;
62702;SPS30;66022;50.448;18.122;2023-03-11T21:34:11;12.60;;12.44;;;;;;;
62702;SPS30;66022;50.448;18.122;2023-03-11T21:38:25;15.74;;15.27;;;;;;;
62702;SPS30;66022;50.448;18.122;2023-03-11T21:42:39;15.74;;15.27;;;;;;;
62702;SPS30;66022;50.448;18.122;2023-03-11T21:51:06;16.44;;15.49;;;;;;;
62702;SPS30;66022;50.448;18.122;2023-03-11T21:55:21;16.44;;15.49;;;;;;;
62702;SPS30;66022;50.448;18.122;2023-03-11T21:59:34;12.48;;12.46;;;;;;;
62702;SPS30;66022;50.448;18.122;2023-03-11T22:03:49;12.48;;12.46;;;;;;;
62702;SPS30;66022;50.448;18.122;2023-03-11T22:08:02;14.15;;13.51;;;;;;;
62702;SPS30;66022;50.448;18.122;2023-03-11T22:12:16;14.15;;13.51;;;;;;;
62702;SPS30;66022;50.448;18.122;2023-03-11T22:16:30;14.15;;13.51;;;;;;;
62702;SPS30;66022;50.448;18.122;2023-03-11T22:20:44;17.02;;16.01;;;;;;;
62702;SPS30;66022;50.448;18.122;2023-03-11T22:25:01;17.02;;16.01;;;;;;;
62702;SPS30;66022;50.448;18.122;2023-03-11T22:29:13;17.68;;16.78;;;;;;;
62702;SPS30;66022;50.448;18.122;2023-03-11T22:33:29;17.68;;16.78;;;;;;;
62702;SPS30;66022;50.448;18.122;2023-03-11T22:37:40;15.62;;15.30;;;;;;;
62702;SPS30;66022;50.448;18.122;2023-03-11T22:41:54;15.62;;15.30;;;;;;;
62702;SPS30;66022;50.448;18.122;2023-03-11T22:46:08;15.62;;15.30;;;;;;;
62702;SPS30;66022;50.448;18.122;2023-03-11T22:50:22;18.00;;16.31;;;;;;;
62702;SPS30;66022;50.448;18.122;2023-03-11T22:54:36;18.00;;16.31;;;;;;;
62702;SPS30;66022;50.448;18.122;2023-03-11T22:58:50;14.61;;14.61;;;;;;;
62702;SPS30;66022;50.448;18.122;2023-03-11T23:03:05;14.61;;14.61;;;;;;;
62702;SPS30;66022;50.448;18.122;2023-03-11T23:07:19;14.83;;14.28;;;;;;;
62702;SPS30;66022;50.448;18.122;2023-03-11T23:11:32;14.83;;14.28;;;;;;;
62702;SPS30;66022;50.448;18.122;2023-03-11T23:15:47;14.83;;14.28;;;;;;;
62702;SPS30;66022;50.448;18.122;2023-03-11T23:20:01;20.59;;18.99;;;;;;;
62702;SPS30;66022;50.448;18.122;2023-03-11T23:24:14;20.59;;18.99;;;;;;;
62702;SPS30;66022;50.448;18.122;2023-03-11T23:28:28;24.80;;23.94;;;;;;;
62702;SPS30;66022;50.448;18.122;2023-03-11T23:32:43;24.80;;23.94;;;;;;;
62702;SPS30;66022;50.448;18.122;2023-03-11T23:36:58;24.80;;23.94;;;;;;;
62702;SPS30;66022;50.448;18.122;2023-03-11T23:41:11;18.09;;18.05;;;;;;;
62702;SPS30;66022;50.448;18.122;2023-03-11T23:45:26;18.09;;18.05;;;;;;;
62702;SPS30;66022;50.448;18.122;2023-03-11T23:49:38;14.54;;14.12;;;;;;;
62702;SPS30;66022;50.448;18.122;2023-03-11T23:53:52;14.54;;14.12;;;;;;;
62702;SPS30;66022;50.448;18.122;2023-03-11T23:58:06;14.02;;13.34;;;;;;;
